sensor_id;sensor_type;location;lat;lon;timestamp;temperature;humidity
33825;DHT22;20127;48.962;8.342;2022-10-16T00:13:55;18.20;99.90
33825;DHT22;20127;48.962;8.342;2022-10-16T00:17:11;18.20;99.90
33825;DHT22;20127;48.962;8.342;2022-10-16T00:20:23;18.10;99.90
33825;DHT22;20127;48.962;8.342;2022-10-16T01:52:44;17.50;99.90
33825;DHT22;20127;48.962;8.342;2022-10-16T01:56:07;17.40;99.90
33825;DHT22;20127;48.962;8.342;2022-10-16T02:03:23;17.80;99.90
33825;DHT22;20127;48.962;8.342;2022-10-16T02:14:40;17.30;99.90
33825;DHT22;20127;48.962;8.342;2022-10-16T03:22:17;16.80;99.90
33825;DHT22;20127;48.962;8.342;2022-10-16T03:25:33;16.90;99.90
33825;DHT22;20127;48.962;8.342;2022-10-16T03:28:37;17.10;99.90
33825;DHT22;20127;48.962;8.342;2022-10-16T03:32:01;16.70;99.90
33825;DHT22;20127;48.962;8.342;2022-10-16T03:35:36;16.80;99.90
33825;DHT22;20127;48.962;8.342;2022-10-16T03:47:36;16.90;99.90
33825;DHT22;20127;48.962;8.342;2022-10-16T03:50:49;16.80;99.90
33825;DHT22;20127;48.962;8.342;2022-10-16T03:58:01;16.80;99.90
33825;DHT22;20127;48.962;8.342;2022-10-16T04:01:03;16.90;99.90
33825;DHT22;20127;48.962;8.342;2022-10-16T04:08:32;16.70;99.90
33825;DHT22;20127;48.962;8.342;2022-10-16T04:11:35;16.80;99.90
33825;DHT22;20127;48.962;8.342;2022-10-16T04:14:37;17.20;99.90
33825;DHT22;20127;48.962;8.342;2022-10-16T04:17:38;16.80;99.90
33825;DHT22;20127;48.962;8.342;2022-10-16T04:20:40;16.80;99.90
33825;DHT22;20127;48.962;8.342;2022-10-16T04:23:44;17.00;99.90
33825;DHT22;20127;48.962;8.342;2022-10-16T04:26:45;17.10;99.90
33825;DHT22;20127;48.962;8.342;2022-10-16T04:33:42;17.10;99.90
33825;DHT22;20127;48.962;8.342;2022-10-16T04:37:07;17.00;99.90
33825;DHT22;20127;48.962;8.342;2022-10-16T04:57:29;16.90;99.90
33825;DHT22;20127;48.962;8.342;2022-10-16T05:09:23;16.80;99.90
33825;DHT22;20127;48.962;8.342;2022-10-16T05:16:45;16.80;99.90
33825;DHT22;20127;48.962;8.342;2022-10-16T05:19:48;16.70;99.90
33825;DHT22;20127;48.962;8.342;2022-10-16T05:22:54;17.20;99.90
33825;DHT22;20127;48.962;8.342;2022-10-16T07:30:20;18.80;99.90
33825;DHT22;20127;48.962;8.342;2022-10-16T07:41:23;19.40;99.90
33825;DHT22;20127;48.962;8.342;2022-10-16T07:44:27;19.40;99.90
33825;DHT22;20127;48.962;8.342;2022-10-16T07:54:53;19.80;99.90
33825;DHT22;20127;48.962;8.342;2022-10-16T07:57:55;19.80;99.90
33825;DHT22;20127;48.962;8.342;2022-10-16T08:27:59;20.40;99.90
33825;DHT22;20127;48.962;8.342;2022-10-16T08:47:07;21.50;99.90
33825;DHT22;20127;48.962;8.342;2022-10-16T08:53:53;21.80;99.90
33825;DHT22;20127;48.962;8.342;2022-10-16T08:56:57;22.00;99.90
33825;DHT22;20127;48.962;8.342;2022-10-16T09:00:11;22.20;99.90
33825;DHT22;20127;48.962;8.342;2022-10-16T09:33:10;24.20;99.90
33825;DHT22;20127;48.962;8.342;2022-10-16T09:36:34;24.00;99.90
33825;DHT22;20127;48.962;8.342;2022-10-16T09:39:57;24.00;99.90
33825;DHT22;20127;48.962;8.342;2022-10-16T09:47:24;24.50;99.90
33825;DHT22;20127;48.962;8.342;2022-10-16T09:51:24;24.90;99.90
33825;DHT22;20127;48.962;8.342;2022-10-16T09:54:53;25.20;99.80
33825;DHT22;20127;48.962;8.342;2022-10-16T09:58:36;25.50;98.10
33825;DHT22;20127;48.962;8.342;2022-10-16T10:02:10;26.00;98.70
33825;DHT22;20127;48.962;8.342;2022-10-16T10:05:25;26.20;96.70
33825;DHT22;20127;48.962;8.342;2022-10-16T10:08:37;26.50;95.90
33825;DHT22;20127;48.962;8.342;2022-10-16T10:11:53;26.80;95.00
33825;DHT22;20127;48.962;8.342;2022-10-16T10:23:20;27.90;93.10
33825;DHT22;20127;48.962;8.342;2022-10-16T10:26:32;28.20;91.90
33825;DHT22;20127;48.962;8.342;2022-10-16T10:29:46;28.50;90.60
33825;DHT22;20127;48.962;8.342;2022-10-16T10:33:05;28.80;88.60
33825;DHT22;20127;48.962;8.342;2022-10-16T10:36:17;29.20;86.80
33825;DHT22;20127;48.962;8.342;2022-10-16T10:39:25;29.50;84.20
33825;DHT22;20127;48.962;8.342;2022-10-16T11:05:44;29.50;77.40
33825;DHT22;20127;48.962;8.342;2022-10-16T11:08:55;29.10;78.60
33825;DHT22;20127;48.962;8.342;2022-10-16T11:12:05;28.80;79.10
33825;DHT22;20127;48.962;8.342;2022-10-16T11:15:14;28.60;78.80
33825;DHT22;20127;48.962;8.342;2022-10-16T11:18:19;28.50;79.80
33825;DHT22;20127;48.962;8.342;2022-10-16T11:21:24;28.50;79.80
33825;DHT22;20127;48.962;8.342;2022-10-16T11:24:34;28.50;80.00
33825;DHT22;20127;48.962;8.342;2022-10-16T11:27:39;28.60;80.10
33825;DHT22;20127;48.962;8.342;2022-10-16T11:30:44;28.60;77.50
33825;DHT22;20127;48.962;8.342;2022-10-16T11:33:52;28.70;78.40
33825;DHT22;20127;48.962;8.342;2022-10-16T11:37:02;28.80;76.40
33825;DHT22;20127;48.962;8.342;2022-10-16T11:40:17;28.70;76.20
33825;DHT22;20127;48.962;8.342;2022-10-16T11:43:24;28.60;75.80
33825;DHT22;20127;48.962;8.342;2022-10-16T11:46:27;28.60;76.10
33825;DHT22;20127;48.962;8.342;2022-10-16T11:49:33;28.60;75.80
33825;DHT22;20127;48.962;8.342;2022-10-16T11:52:42;28.40;75.40
33825;DHT22;20127;48.962;8.342;2022-10-16T11:55:46;28.30;74.80
33825;DHT22;20127;48.962;8.342;2022-10-16T11:58:54;28.10;75.20
33825;DHT22;20127;48.962;8.342;2022-10-16T12:02:25;28.00;74.80
33825;DHT22;20127;48.962;8.342;2022-10-16T12:05:34;27.60;75.00
33825;DHT22;20127;48.962;8.342;2022-10-16T12:08:40;27.40;76.60
33825;DHT22;20127;48.962;8.342;2022-10-16T12:11:42;27.20;76.80
33825;DHT22;20127;48.962;8.342;2022-10-16T12:14:44;27.10;77.30
33825;DHT22;20127;48.962;8.342;2022-10-16T12:17:46;27.10;77.80
33825;DHT22;20127;48.962;8.342;2022-10-16T12:20:55;27.20;78.20
33825;DHT22;20127;48.962;8.342;2022-10-16T12:24:02;27.10;77.50
33825;DHT22;20127;48.962;8.342;2022-10-16T12:27:06;27.00;77.50
33825;DHT22;20127;48.962;8.342;2022-10-16T12:30:21;26.90;77.20
33825;DHT22;20127;48.962;8.342;2022-10-16T12:33:25;26.70;77.50
33825;DHT22;20127;48.962;8.342;2022-10-16T12:36:28;26.50;79.50
33825;DHT22;20127;48.962;8.342;2022-10-16T12:39:32;26.60;80.30
33825;DHT22;20127;48.962;8.342;2022-10-16T12:42:34;26.60;79.30
33825;DHT22;20127;48.962;8.342;2022-10-16T12:45:36;26.50;79.20
33825;DHT22;20127;48.962;8.342;2022-10-16T12:48:39;26.50;79.40
33825;DHT22;20127;48.962;8.342;2022-10-16T12:51:42;26.60;78.80
33825;DHT22;20127;48.962;8.342;2022-10-16T12:54:45;26.60;79.20
33825;DHT22;20127;48.962;8.342;2022-10-16T12:58:03;26.50;78.60
33825;DHT22;20127;48.962;8.342;2022-10-16T13:01:16;26.40;79.30
33825;DHT22;20127;48.962;8.342;2022-10-16T13:04:50;26.40;80.50
33825;DHT22;20127;48.962;8.342;2022-10-16T13:08:18;26.50;80.70
33825;DHT22;20127;48.962;8.342;2022-10-16T13:11:27;26.50;82.30
33825;DHT22;20127;48.962;8.342;2022-10-16T13:18:21;26.30;82.20
33825;DHT22;20127;48.962;8.342;2022-10-16T13:21:33;26.20;82.70
33825;DHT22;20127;48.962;8.342;2022-10-16T13:24:48;26.10;83.30
33825;DHT22;20127;48.962;8.342;2022-10-16T13:27:57;26.10;83.70
33825;DHT22;20127;48.962;8.342;2022-10-16T13:31:01;26.20;84.10
33825;DHT22;20127;48.962;8.342;2022-10-16T13:34:04;26.20;83.60
33825;DHT22;20127;48.962;8.342;2022-10-16T13:37:17;26.20;83.40
33825;DHT22;20127;48.962;8.342;2022-10-16T13:40:21;26.10;84.00
33825;DHT22;20127;48.962;8.342;2022-10-16T13:43:27;26.00;84.70
33825;DHT22;20127;48.962;8.342;2022-10-16T13:46:29;25.90;85.10
33825;DHT22;20127;48.962;8.342;2022-10-16T13:49:34;25.70;86.00
33825;DHT22;20127;48.962;8.342;2022-10-16T13:52:36;25.50;88.10
33825;DHT22;20127;48.962;8.342;2022-10-16T13:55:38;25.40;89.90
33825;DHT22;20127;48.962;8.342;2022-10-16T13:58:42;25.30;90.40
33825;DHT22;20127;48.962;8.342;2022-10-16T14:01:44;25.20;91.20
33825;DHT22;20127;48.962;8.342;2022-10-16T14:04:46;25.10;91.60
33825;DHT22;20127;48.962;8.342;2022-10-16T14:07:50;25.00;92.20
33825;DHT22;20127;48.962;8.342;2022-10-16T14:10:54;24.90;92.80
33825;DHT22;20127;48.962;8.342;2022-10-16T14:13:58;24.80;93.20
33825;DHT22;20127;48.962;8.342;2022-10-16T14:16:59;24.70;93.50
33825;DHT22;20127;48.962;8.342;2022-10-16T14:20:04;24.70;94.00
33825;DHT22;20127;48.962;8.342;2022-10-16T14:23:20;24.80;94.50
33825;DHT22;20127;48.962;8.342;2022-10-16T14:26:42;25.20;92.90
33825;DHT22;20127;48.962;8.342;2022-10-16T15:27:47;26.70;88.70
33825;DHT22;20127;48.962;8.342;2022-10-16T16:03:51;23.50;94.30
33825;DHT22;20127;48.962;8.342;2022-10-16T16:07:17;23.40;95.90
33825;DHT22;20127;48.962;8.342;2022-10-16T16:10:20;23.40;96.60
33825;DHT22;20127;48.962;8.342;2022-10-16T16:13:22;21.90;99.90
33825;DHT22;20127;48.962;8.342;2022-10-16T16:16:23;22.10;99.90
33825;DHT22;20127;48.962;8.342;2022-10-16T16:20:03;22.70;99.90
33825;DHT22;20127;48.962;8.342;2022-10-16T16:24:09;23.10;99.60
33825;DHT22;20127;48.962;8.342;2022-10-16T16:27:11;22.90;99.30
33825;DHT22;20127;48.962;8.342;2022-10-16T16:30:13;22.80;98.80
33825;DHT22;20127;48.962;8.342;2022-10-16T16:33:15;22.70;98.80
33825;DHT22;20127;48.962;8.342;2022-10-16T16:36:17;22.50;98.90
33825;DHT22;20127;48.962;8.342;2022-10-16T16:39:22;22.30;99.00
33825;DHT22;20127;48.962;8.342;2022-10-16T16:42:24;21.90;99.30
33825;DHT22;20127;48.962;8.342;2022-10-16T16:45:26;21.70;99.60
33825;DHT22;20127;48.962;8.342;2022-10-16T16:48:28;21.60;99.80
33825;DHT22;20127;48.962;8.342;2022-10-16T16:51:52;21.40;99.90
33825;DHT22;20127;48.962;8.342;2022-10-16T16:55:01;21.20;99.90
33825;DHT22;20127;48.962;8.342;2022-10-16T16:58:02;21.10;99.90
33825;DHT22;20127;48.962;8.342;2022-10-16T17:01:05;20.90;99.90
33825;DHT22;20127;48.962;8.342;2022-10-16T17:04:13;20.70;99.90
33825;DHT22;20127;48.962;8.342;2022-10-16T17:07:53;20.60;99.90
33825;DHT22;20127;48.962;8.342;2022-10-16T17:11:11;20.40;99.90
33825;DHT22;20127;48.962;8.342;2022-10-16T17:14:34;20.20;99.90
33825;DHT22;20127;48.962;8.342;2022-10-16T17:17:45;20.00;99.90
33825;DHT22;20127;48.962;8.342;2022-10-16T17:23:55;19.70;99.90
33825;DHT22;20127;48.962;8.342;2022-10-16T17:27:13;19.60;99.90
33825;DHT22;20127;48.962;8.342;2022-10-16T17:30:18;19.40;99.90
33825;DHT22;20127;48.962;8.342;2022-10-16T17:33:50;19.40;99.90
33825;DHT22;20127;48.962;8.342;2022-10-16T17:41:15;19.10;99.90
33825;DHT22;20127;48.962;8.342;2022-10-16T17:44:38;19.00;99.90
33825;DHT22;20127;48.962;8.342;2022-10-16T17:47:44;19.00;99.90
33825;DHT22;20127;48.962;8.342;2022-10-16T17:50:46;18.70;99.90
33825;DHT22;20127;48.962;8.342;2022-10-16T17:54:00;18.70;99.90
33825;DHT22;20127;48.962;8.342;2022-10-16T17:57:04;18.70;99.90
33825;DHT22;20127;48.962;8.342;2022-10-16T18:00:08;18.70;99.90
33825;DHT22;20127;48.962;8.342;2022-10-16T18:06:30;18.60;99.90
33825;DHT22;20127;48.962;8.342;2022-10-16T18:09:34;18.50;99.90
33825;DHT22;20127;48.962;8.342;2022-10-16T18:12:48;18.50;99.90
33825;DHT22;20127;48.962;8.342;2022-10-16T18:15:59;18.50;99.90
33825;DHT22;20127;48.962;8.342;2022-10-16T18:19:01;18.30;99.90
33825;DHT22;20127;48.962;8.342;2022-10-16T18:22:03;18.40;99.90
33825;DHT22;20127;48.962;8.342;2022-10-16T18:25:08;18.30;99.90
33825;DHT22;20127;48.962;8.342;2022-10-16T18:28:10;18.20;99.90
33825;DHT22;20127;48.962;8.342;2022-10-16T18:31:15;18.10;99.90
33825;DHT22;20127;48.962;8.342;2022-10-16T18:34:17;18.00;99.90
33825;DHT22;20127;48.962;8.342;2022-10-16T18:37:35;18.00;99.90
33825;DHT22;20127;48.962;8.342;2022-10-16T18:40:42;18.00;99.90
33825;DHT22;20127;48.962;8.342;2022-10-16T18:43:51;17.80;99.90
33825;DHT22;20127;48.962;8.342;2022-10-16T18:46:54;17.70;99.90
33825;DHT22;20127;48.962;8.342;2022-10-16T18:49:56;17.70;99.90
33825;DHT22;20127;48.962;8.342;2022-10-16T18:52:58;17.60;99.90
33825;DHT22;20127;48.962;8.342;2022-10-16T18:56:07;17.60;99.90
33825;DHT22;20127;48.962;8.342;2022-10-16T18:59:11;17.60;99.90
33825;DHT22;20127;48.962;8.342;2022-10-16T19:16:08;17.60;99.90
33825;DHT22;20127;48.962;8.342;2022-10-16T19:18:53;17.50;99.90
33825;DHT22;20127;48.962;8.342;2022-10-16T19:22:15;17.50;99.90
33825;DHT22;20127;48.962;8.342;2022-10-16T19:25:27;17.60;99.90
33825;DHT22;20127;48.962;8.342;2022-10-16T19:28:41;17.70;99.90
33825;DHT22;20127;48.962;8.342;2022-10-16T19:31:51;17.50;99.90
33825;DHT22;20127;48.962;8.342;2022-10-16T19:34:52;17.60;99.90
33825;DHT22;20127;48.962;8.342;2022-10-16T19:37:56;17.50;99.90
33825;DHT22;20127;48.962;8.342;2022-10-16T19:41:04;17.50;99.90
33825;DHT22;20127;48.962;8.342;2022-10-16T19:44:08;17.40;99.90
33825;DHT22;20127;48.962;8.342;2022-10-16T19:47:11;17.50;99.90
33825;DHT22;20127;48.962;8.342;2022-10-16T19:50:14;17.30;99.90
33825;DHT22;20127;48.962;8.342;2022-10-16T19:53:16;17.30;99.90
33825;DHT22;20127;48.962;8.342;2022-10-16T19:56:21;17.20;99.90
33825;DHT22;20127;48.962;8.342;2022-10-16T19:59:24;17.20;99.90
33825;DHT22;20127;48.962;8.342;2022-10-16T20:02:26;17.10;99.90
33825;DHT22;20127;48.962;8.342;2022-10-16T20:05:28;17.10;99.90
33825;DHT22;20127;48.962;8.342;2022-10-16T20:08:29;17.00;99.90
33825;DHT22;20127;48.962;8.342;2022-10-16T20:11:32;17.00;99.90
33825;DHT22;20127;48.962;8.342;2022-10-16T21:02:10;16.20;99.90
33825;DHT22;20127;48.962;8.342;2022-10-16T21:09:59;15.70;99.90
33825;DHT22;20127;48.962;8.342;2022-10-16T21:24:58;15.70;99.90
33825;DHT22;20127;48.962;8.342;2022-10-16T21:29:17;15.70;99.90
33825;DHT22;20127;48.962;8.342;2022-10-16T21:52:55;15.20;99.90
33825;DHT22;20127;48.962;8.342;2022-10-16T22:05:02;15.10;99.90
33825;DHT22;20127;48.962;8.342;2022-10-16T22:15:53;15.30;99.90
33825;DHT22;20127;48.962;8.342;2022-10-16T22:57:51;14.80;99.90
33825;DHT22;20127;48.962;8.342;2022-10-16T23:00:55;15.00;99.90
33825;DHT22;20127;48.962;8.342;2022-10-16T23:03:57;15.00;99.90
33825;DHT22;20127;48.962;8.342;2022-10-16T23:07:00;15.10;99.90
33825;DHT22;20127;48.962;8.342;2022-10-16T23:10:02;14.70;99.90
33825;DHT22;20127;48.962;8.342;2022-10-16T23:13:36;14.70;99.90
33825;DHT22;20127;48.962;8.342;2022-10-16T23:17:20;14.60;99.90
33825;DHT22;20127;48.962;8.342;2022-10-16T23:28:48;14.60;99.90
33825;DHT22;20127;48.962;8.342;2022-10-16T23:32:11;14.70;99.90
33825;DHT22;20127;48.962;8.342;2022-10-16T23:35:28;14.50;99.90
33825;DHT22;20127;48.962;8.342;2022-10-16T23:38:58;14.50;99.90
33825;DHT22;20127;48.962;8.342;2022-10-16T23:42:08;14.40;99.90
33825;DHT22;20127;48.962;8.342;2022-10-16T23:45:49;14.30;99.90
33825;DHT22;20127;48.962;8.342;2022-10-16T23:48:54;14.30;99.90
33825;DHT22;20127;48.962;8.342;2022-10-16T23:55:47;14.30;99.90
33825;DHT22;20127;48.962;8.342;2022-10-16T23:58:48;14.60;99.90
